Home > Products > Valid Products > TAF

000
FTUS41 KBUF 041027 AAB
TAFART
TAF AMD
KART 041027Z 0410/0506 VRB03KT 2SM BR SKC
      TEMPO 0410/0412 1/4SM FG SCT002
     FM041300 05006KT P6SM SKC
     FM041600 04010KT P6SM FEW250
     FM050000 04004KT P6SM SKC=



000
FTUS41 KBUF 040805 AAA
TAFROC
TAF AMD
KROC 040805Z 0408/0506 05003KT 5SM BR SKC
     FM041300 07005KT P6SM SCT250
     FM041800 06010KT P6SM FEW250
     FM050000 06006KT P6SM SKC=



000
FTUS41 KBUF 040805 AAA
TAFIAG
TAF AMD
KIAG 040805Z 0408/0506 08003KT 5SM BR BKN250
     FM041300 08005KT P6SM SCT250
     FM041600 08010KT P6SM FEW040 SCT250
     FM050300 08006KT P6SM SKC=



000
FTUS41 KBUF 040805 AAA
TAFROC
TAF AMD
KROC 040805Z 0408/0506 05003KT 5SM BR SKC
     FM041300 07005KT P6SM SCT250
     FM041800 06010KT P6SM FEW250
     FM050000 06006KT P6SM SKC=



000
FTUS41 KBUF 040804 AAB
TAFBUF
TAF AMD
KBUF 040804Z 0408/0506 06004KT 5SM BR BKN250
     FM041300 08006KT P6SM SCT250
     FM041600 08010KT P6SM FEW040 SCT250
     FM050000 07008KT P6SM SKC=



000
FTUS41 KBUF 040801 AAA
TAFART
TAF AMD
KART 040801Z 0408/0506 07004KT 4SM BR SKC
      TEMPO 0408/0410 2SM BR
     FM041100 06004KT 6SM BR SKC
     FM041300 05006KT P6SM SKC
     FM041600 04010KT P6SM FEW250
     FM050000 04004KT P6SM SKC=



000
FTUS41 KBUF 040800 AAA
TAFJHW
TAF AMD
KJHW 040800Z 0408/0506 VRB03KT 5SM BR SCT040
      TEMPO 0408/0410 2SM BR
     FM041000 VRB03KT 2SM BR SCT001
     FM041400 11004KT P6SM BKN060
     FM041800 10006KT P6SM FEW040 SCT110
     FM042300 04004KT P6SM SCT200
     FM050400 12005KT P6SM SCT250
      AMD LTD TO CLD VIS AND WIND=



000
FTUS41 KBUF 040711 AAA
TAFBUF
TAF AMD
KBUF 040711Z 0407/0506 07004KT 5SM BR BKN250
     FM041300 09006KT P6SM SCT250
     FM041600 08010KT P6SM FEW040 SCT250
     FM050000 07008KT P6SM SKC=



000
FTUS41 KBUF 040552
TAFART
TAF
KART 040552Z 0406/0506 07004KT 2SM BR SKC
      TEMPO 0406/0408 4SM BR
     FM040800 06004KT 6SM BR SKC
     FM041300 05006KT P6SM SKC
     FM041600 04010KT P6SM FEW250
     FM050000 04004KT P6SM SKC=



000
FTUS41 KBUF 040552
TAFROC
TAF
KROC 040552Z 0406/0506 05003KT 6SM BR SCT250
      TEMPO 0406/0408 4SM BR
     FM040800 05003KT 4SM BR SKC
     FM041300 08005KT P6SM SCT250
     FM041800 06010KT P6SM FEW250
     FM050000 06006KT P6SM SKC=



000
FTUS41 KBUF 040552
TAFBUF
TAF
KBUF 040552Z 0406/0506 09004KT 6SM BR FEW140 BKN250
      TEMPO 0408/0412 3SM BR
     FM041300 09006KT P6SM SCT250
     FM041600 08010KT P6SM FEW040 SCT250
     FM050000 07008KT P6SM SKC=



000
FTUS41 KBUF 040552
TAFJHW
TAF
KJHW 040552Z 0406/0506 VRB03KT 3SM BR SCT002 BKN250
      TEMPO 0406/0408 2SM BR BKN002
     FM040800 VRB03KT 1/2SM FG BKN003
     FM041400 11004KT P6SM BKN060
     FM041800 10006KT P6SM FEW040 SCT110
     FM042300 04004KT P6SM SCT200
     FM050400 12005KT P6SM SCT250
      AMD LTD TO CLD VIS AND WIND=



000
FTUS41 KBUF 040552
TAFIAG
TAF
KIAG 040552Z 0406/0506 08003KT 5SM BR BKN250
     FM041300 08005KT P6SM SCT250
     FM041600 08010KT P6SM FEW040 SCT250
     FM050300 08006KT P6SM SKC=



000
FTUS41 KBUF 040309 AAA
TAFIAG
TAF AMD
KIAG 040309Z 0403/0424 04005KT P6SM BKN250
     FM040500 11004KT 4SM BR SCT003
     FM041200 08010KT P6SM SCT100
     FM041800 06012KT P6SM SKC=



000
FTUS41 KBUF 040309 AAD
TAFJHW
TAF AMD
KJHW 040309Z 0403/0424 VRB03KT 1SM BR BKN002
     FM040500 10004KT 1/2SM FG BKN002
     FM041300 12006KT 4SM BR BKN012
     FM041400 12008KT P6SM SCT040
      AMD LTD TO CLD VIS AND WIND=



000
FTUS41 KBUF 040309 AAB
TAFART
TAF AMD
KART 040309Z 0403/0424 VRB03KT 5SM BR SKC
     FM040500 04005KT P6SM SKC
     FM041400 04010KT P6SM SKC=



000
FTUS41 KBUF 040309 AAD
TAFBUF
TAF AMD
KBUF 040309Z 0403/0424 VRB05KT P6SM BKN250
     FM040500 08004KT 4SM BR SCT100
     FM041200 08010KT P6SM SCT100
     FM042000 07010KT P6SM SKC=



000
FTUS41 KBUF 040309 AAA
TAFROC
TAF AMD
KROC 040309Z 0403/0424 02006KT P6SM SCT250
     FM040500 VRB03KT 4SM BR SCT100
     FM041200 09008KT P6SM SCT100
     FM041600 06010KT P6SM SCT040=



000
FTUS41 KBUF 040309 AAA
TAFROC
TAF AMD
KROC 040309Z 0403/0424 02006KT P6SM SCT250
     FM040500 VRB03KT 4SM BR SCT100
     FM041200 09008KT P6SM SCT100
     FM041600 06010KT P6SM SCT040=



000
FTUS41 KBUF 040309 AAD
TAFJHW
TAF AMD
KJHW 040309Z 0403/0424 VRB03KT 1SM BR BKN002
     FM040500 10004KT 1/2SM FG BKN002
     FM041300 12006KT 4SM BR BKN012
     FM041400 12008KT P6SM SCT040
      AMD LTD TO CLD VIS AND WIND=



000
FTUS41 KBUF 040309 AAA
TAFIAG
TAF AMD
KIAG 040309Z 0403/0424 04005KT P6SM BKN250
     FM040500 11004KT 4SM BR SCT003
     FM041200 08010KT P6SM SCT100
     FM041800 06012KT P6SM SKC=



000
FTUS41 KBUF 040309 AAD
TAFBUF
TAF AMD
KBUF 040309Z 0403/0424 VRB05KT P6SM BKN250
     FM040500 08004KT 4SM BR SCT100
     FM041200 08010KT P6SM SCT100
     FM042000 07010KT P6SM SKC=



000
FTUS41 KBUF 040309 AAB
TAFART
TAF AMD
KART 040309Z 0403/0424 VRB03KT 5SM BR SKC
     FM040500 04005KT P6SM SKC
     FM041400 04010KT P6SM SKC=



000
FTUS41 KBUF 040246 AAC
TAFJHW
TAF AMD
KJHW 040246Z 0403/0424 VRB03KT 2SM BR SCT004
     FM040500 10004KT 1/2SM FG BKN002
     FM041300 12006KT 4SM BR BKN012
     FM041400 12008KT P6SM SCT040
      AMD LTD TO CLD VIS AND WIND=



000
FTUS41 KBUF 040213 AAA
TAFART
TAF AMD
KART 040213Z 0402/0424 VRB03KT 5SM BR SKC
     FM040500 04005KT P6SM SKC
     FM041400 04010KT P6SM SKC=



000
FTUS41 KBUF 040101 AAB
TAFJHW
TAF AMD
KJHW 040101Z 0401/0424 34005KT 3SM BR SCT004
      TEMPO 0401/0403 1SM BR BKN004
     FM040400 VRB03KT 2SM BR SCT004
     FM040600 10004KT 1/2SM FG BKN002
     FM041300 12006KT 4SM BR BKN012
     FM041400 12008KT P6SM SCT040
      AMD LTD TO CLD VIS AND WIND=



000
FTUS41 KBUF 040049 AAA
TAFJHW
TAF AMD
KJHW 040049Z 0401/0424 34005KT 3SM BR SCT008
     FM040400 VRB03KT 2SM BR SCT005
     FM040600 10004KT 1/2SM FG BKN002
     FM041300 12006KT 4SM BR BKN012
     FM041400 12008KT P6SM SCT040
      AMD LTD TO CLD VIS AND WIND=



000
FTUS41 KBUF 032325
TAFBUF
TAF
KBUF 032325Z 0400/0424 03005KT P6SM BKN250
     FM040400 08004KT 4SM BR SCT100
     FM041200 08010KT P6SM SCT100
     FM042000 07010KT P6SM SKC=



000
FTUS41 KBUF 032325
TAFIAG
TAF
KIAG 032325Z 0400/0424 04005KT P6SM BKN250
     FM040400 11004KT 4SM BR SCT003
     FM041200 08010KT P6SM SCT100
     FM041800 06012KT P6SM SKC=



000
FTUS41 KBUF 032325
TAFJHW
TAF
KJHW 032325Z 0400/0424 01005KT P6SM SCT100
     FM040400 VRB03KT 4SM BR SCT040
     FM040600 10004KT 1/2SM FG BKN002
     FM041300 12006KT 4SM BR BKN012
     FM041400 12008KT P6SM SCT040
      AMD LTD TO CLD VIS AND WIND=



000
FTUS41 KBUF 032325
TAFROC
TAF
KROC 032325Z 0400/0424 02006KT P6SM SCT250
     FM040400 VRB03KT 4SM BR SCT100
     FM041200 09008KT P6SM SCT100
     FM041600 06010KT P6SM SCT040=



000
FTUS41 KBUF 032325
TAFART
TAF
KART 032325Z 0400/0424 04005KT P6SM SKC
     FM041400 04010KT P6SM SKC=



000
FTUS41 KBUF 032325
TAFIAG
TAF
KIAG 032325Z 0400/0424 04005KT P6SM BKN250
     FM040400 11004KT 4SM BR SCT003
     FM041200 08010KT P6SM SCT100
     FM041800 06012KT P6SM SKC=



000
FTUS41 KBUF 032325
TAFBUF
TAF
KBUF 032325Z 0400/0424 03005KT P6SM BKN250
     FM040400 08004KT 4SM BR SCT100
     FM041200 08010KT P6SM SCT100
     FM042000 07010KT P6SM SKC=



000
FTUS41 KBUF 032325
TAFART
TAF
KART 032325Z 0400/0424 04005KT P6SM SKC
     FM041400 04010KT P6SM SKC=



000
FTUS41 KBUF 032325
TAFJHW
TAF
KJHW 032325Z 0400/0424 01005KT P6SM SCT100
     FM040400 VRB03KT 4SM BR SCT040
     FM040600 10004KT 1/2SM FG BKN002
     FM041300 12006KT 4SM BR BKN012
     FM041400 12008KT P6SM SCT040
      AMD LTD TO CLD VIS AND WIND=



000
FTUS41 KBUF 032325
TAFROC
TAF
KROC 032325Z 0400/0424 02006KT P6SM SCT250
     FM040400 VRB03KT 4SM BR SCT100
     FM041200 09008KT P6SM SCT100
     FM041600 06010KT P6SM SCT040=



000
FTUS41 KBUF 032104 AAA
TAFART
TAF AMD
KART 032104Z 0321/0418 03010KT P6SM SCT040
     FM040100 06005KT P6SM FEW200
     FM041500 04009KT P6SM SKC=



000
FTUS41 KBUF 032104 AAA
TAFROC
TAF AMD
KROC 032104Z 0321/0418 01008KT P6SM SCT200
     FM032300 02006KT P6SM SCT250
     FM040400 VRB03KT 4SM BR SCT060
     FM041100 09008KT P6SM SCT200
     FM041600 06010KT P6SM SCT250=



000
FTUS41 KBUF 032104 AAA
TAFJHW
TAF AMD
KJHW 032104Z 0321/0418 02005KT P6SM SCT035
     FM040400 07004KT 4SM BR SCT040
     FM040600 12004KT 1/2SM FG BKN002
     FM041300 12007KT 4SM BR BKN012
     FM041400 12007KT P6SM BKN120
      AMD LTD TO CLD VIS AND WIND=



000
FTUS41 KBUF 032104 AAB
TAFIAG
TAF AMD
KIAG 032104Z 0321/0418 02005KT P6SM SCT040
     FM032300 04005KT P6SM SCT250
     FM040400 11004KT 4SM BR SCT060
     FM041200 07010KT P6SM SCT140=



000
FTUS41 KBUF 032104 AAC
TAFBUF
TAF AMD
KBUF 032104Z 0321/0418 34005KT P6SM SCT040
     FM032300 36005KT P6SM SCT250
     FM040100 04004KT P6SM SCT250
     FM040400 11004KT 4SM BR SCT060
     FM041200 07010KT P6SM SCT120=



000
FTUS41 KBUF 031904 AAB
TAFBUF
TAF AMD
KBUF 031904Z 0319/0418 22006KT P6SM BKN035
      TEMPO 0319/0320 -TSRA BKN035CB
     FM032000 30006KT P6SM SCT035
     FM032300 36005KT P6SM SCT250
     FM040100 04004KT P6SM SCT250
     FM040400 11004KT 4SM BR SCT060
     FM041200 07010KT P6SM SCT120=



000
FTUS41 KBUF 031804 AAA
TAFIAG
TAF AMD
KIAG 031804Z 0318/0418 VRB03KT P6SM VCSH BKN035
     FM032000 03005KT P6SM SCT040
     FM032300 04005KT P6SM SCT250
     FM040400 11004KT 4SM BR SCT060
     FM041200 07010KT P6SM SCT140=



000
FTUS41 KBUF 031804 AAA
TAFIAG
TAF AMD
KIAG 031804Z 0318/0418 VRB03KT P6SM VCSH BKN035
     FM032000 03005KT P6SM SCT040
     FM032300 04005KT P6SM SCT250
     FM040400 11004KT 4SM BR SCT060
     FM041200 07010KT P6SM SCT140=



000
FTUS41 KBUF 031720
TAFIAG
TAF
KIAG 031720Z 0318/0418 VRB03KT P6SM BKN035
     FM032000 03005KT P6SM SCT040
     FM032300 04005KT P6SM SCT250
     FM040400 11004KT 4SM BR SCT060
     FM041200 07010KT P6SM SCT140=



000
FTUS41 KBUF 031720
TAFROC
TAF
KROC 031720Z 0318/0418 34006KT P6SM SCT035
     FM032000 01008KT P6SM BKN040
     FM032300 02006KT P6SM SCT250
     FM040400 VRB03KT 4SM BR SCT060
     FM041100 09008KT P6SM SCT200
     FM041600 06010KT P6SM SCT250=



000
FTUS41 KBUF 031720
TAFJHW
TAF
KJHW 031720Z 0318/0418 VRB03KT P6SM VCSH BKN030
     FM032000 02005KT P6SM BKN035
     FM040400 07004KT 4SM BR SCT040
     FM040600 12004KT 1/2SM FG BKN002
     FM041300 12007KT 4SM BR BKN012
     FM041400 12007KT P6SM BKN120
      AMD LTD TO CLD VIS AND WIND=



000
FTUS41 KBUF 031720
TAFBUF
TAF
KBUF 031720Z 0318/0418 22006KT P6SM SCT030 BKN200
     FM032000 30006KT P6SM SCT035
     FM032300 36005KT P6SM SCT250
     FM040100 04004KT P6SM SCT250
     FM040400 11004KT 4SM BR SCT060
     FM041200 07010KT P6SM SCT120=



000
FTUS41 KBUF 031720
TAFART
TAF
KART 031720Z 0318/0418 35005KT P6SM SCT025 BKN050
     FM032100 36009KT P6SM SCT040
     FM040400 06005KT P6SM FEW200
     FM041500 04009KT P6SM SKC=



000
FTUS41 KBUF 031501 AAC
TAFBUF
TAF AMD
KBUF 031501Z 0315/0412 21005KT 6SM HZ SCT015 BKN250
     FM032000 34006KT P6SM FEW040 SCT250
     FM040000 03006KT P6SM SCT250
     FM040400 08005KT P6SM SCT100=



000
FTUS41 KBUF 031501 AAA
TAFIAG
TAF AMD
KIAG 031501Z 0315/0412 21004KT 6SM HZ SCT015 BKN250
     FM031900 35005KT P6SM FEW040 SCT100
     FM040000 06004KT P6SM SCT100
     FM040900 07005KT 4SM BR SCT250=



000
FTUS41 KBUF 031501 AAA
TAFROC
TAF AMD
KROC 031501Z 0315/0412 25004KT P6SM BKN250
     FM031800 35006KT P6SM SCT040 BKN250
     FM032300 03006KT P6SM SCT100
     FM040900 05004KT 4SM BR SCT250=



000
FTUS41 KBUF 031501 AAB
TAFJHW
TAF AMD
KJHW 031501Z 0315/0412 23004KT P6SM SCT025 BKN035
     FM031800 30005KT P6SM SCT040 BKN250
     FM040100 36004KT P6SM BKN250
     FM040400 05004KT P6SM SCT110
     FM040800 VRB03KT 2SM BR BKN003
      AMD LTD TO CLD VIS AND WIND=



000
FTUS41 KBUF 031501 AAC
TAFART
TAF AMD
KART 031501Z 0315/0412 VRB03KT 4SM HZ OVC008
     FM031700 01005KT P6SM SCT040 BKN080
     FM040000 04005KT P6SM FEW250
     FM040800 VRB03KT P6SM SKC=



000
FTUS41 KBUF 031343 AAB
TAFART
TAF AMD
KART 031343Z 0314/0412 VRB03KT 1SM BR OVC003
     FM031600 VRB03KT 3SM BR SCT005
     FM031800 01005KT P6SM SCT040 BKN080
     FM040000 04005KT P6SM FEW250
     FM040800 VRB03KT P6SM SKC=



000
FTUS41 KBUF 031301 AAA
TAFJHW
TAF AMD
KJHW 031301Z 0313/0412 22003KT 1/4SM FG OVC002
     FM031400 23005KT P6SM SCT040 BKN250
     FM031800 30005KT P6SM SCT040 BKN250
     FM040100 36004KT P6SM BKN250
     FM040400 05004KT P6SM SCT110
     FM040800 VRB03KT 2SM BR BKN003
      AMD LTD TO CLD VIS AND WIND=



000
FTUS41 KBUF 031301 AAA
TAFJHW
TAF AMD
KJHW 031301Z 0313/0412 22003KT 1/4SM FG OVC002
     FM031400 23005KT P6SM SCT040 BKN250
     FM031800 30005KT P6SM SCT040 BKN250
     FM040100 36004KT P6SM BKN250
     FM040400 05004KT P6SM SCT110
     FM040800 VRB03KT 2SM BR BKN003
      AMD LTD TO CLD VIS AND WIND=



000
FTUS41 KBUF 031229 AAB
TAFBUF
TAF AMD
KBUF 031229Z 0312/0412 19004KT 4SM BR SCT004
     FM031330 23004KT 6SM HZ SCT006 BKN250
     FM031600 26006KT P6SM SCT040 BKN250
     FM032000 31006KT P6SM FEW040 SCT250
     FM040000 03006KT P6SM SCT250
     FM040400 08005KT P6SM SCT100=



000
FTUS41 KBUF 031229 AAB
TAFBUF
TAF AMD
KBUF 031229Z 0312/0412 19004KT 4SM BR SCT004
     FM031330 23004KT 6SM HZ SCT006 BKN250
     FM031600 26006KT P6SM SCT040 BKN250
     FM032000 31006KT P6SM FEW040 SCT250
     FM040000 03006KT P6SM SCT250
     FM040400 08005KT P6SM SCT100=



000
FTUS41 KBUF 031212 AAA
TAFART
TAF AMD
KART 031212Z 0312/0412 VRB03KT 1/2SM FG BKN002
     FM031330 VRB03KT P6SM BKN250
     FM031800 01005KT P6SM SCT040 BKN080
     FM040000 04005KT P6SM FEW250
     FM040800 VRB03KT P6SM SKC=



000
FTUS41 KBUF 031148
TAFJHW
TAF
KJHW 031148Z 0312/0412 VRB03KT 1/4SM FG OVC002
     FM031300 22003KT 2SM BR SCT002 BKN025
     FM031400 23005KT P6SM SCT040 BKN250
     FM031800 30005KT P6SM SCT040 BKN250
     FM040100 36004KT P6SM BKN250
     FM040400 05004KT P6SM SCT110
     FM040800 VRB03KT 2SM BR BKN003
      AMD LTD TO CLD VIS AND WIND=



000
FTUS41 KBUF 031148
TAFART
TAF
KART 031148Z 0312/0412 VRB03KT 1SM BR FEW060 BKN250
     FM031300 VRB03KT 2SM BR FEW060 BKN250
     FM031400 VRB03KT P6SM BKN250
     FM031800 01005KT P6SM SCT040 BKN080
     FM040000 04005KT P6SM FEW250
     FM040800 VRB03KT P6SM SKC=



000
FTUS41 KBUF 031148
TAFBUF
TAF
KBUF 031148Z 0312/0412 19004KT 4SM BR BKN004
     FM031330 23004KT 6SM HZ SCT006 SCT130 BKN250
     FM031600 26006KT P6SM SCT040 BKN250
     FM032000 31006KT P6SM FEW040 SCT250
     FM040000 03006KT P6SM SCT250
     FM040400 08005KT P6SM SCT100=



000
FTUS41 KBUF 031148
TAFROC
TAF
KROC 031148Z 0312/0412 24004KT 3SM BR SCT050 BKN250
      TEMPO 0312/0313 2SM BR
     FM031400 26004KT P6SM SCT050 BKN250
     FM031700 34006KT P6SM BKN040 BKN250
     FM032300 03006KT P6SM SCT100
     FM040900 05004KT 4SM BR SCT250=



000
FTUS41 KBUF 031148
TAFIAG
TAF
KIAG 031148Z 0312/0412 VRB03KT 1/4SM FG VV002
     FM031300 24004KT 1SM BR BKN004
     FM031400 24004KT P6SM SCT004 BKN025
     FM031600 30006KT P6SM SCT040 BKN250
     FM032000 35005KT P6SM FEW040 SCT100
     FM040000 06004KT P6SM SCT100
     FM040900 07005KT 4SM BR SCT250=



000
FTUS41 KBUF 031148
TAFJHW
TAF
KJHW 031148Z 0312/0412 VRB03KT 1/4SM FG OVC002
     FM031300 22003KT 2SM BR SCT002 BKN025
     FM031400 23005KT P6SM SCT040 BKN250
     FM031800 30005KT P6SM SCT040 BKN250
     FM040100 36004KT P6SM BKN250
     FM040400 05004KT P6SM SCT110
     FM040800 VRB03KT 2SM BR BKN003
      AMD LTD TO CLD VIS AND WIND=



000
FTUS41 KBUF 031148
TAFART
TAF
KART 031148Z 0312/0412 VRB03KT 1SM BR FEW060 BKN250
     FM031300 VRB03KT 2SM BR FEW060 BKN250
     FM031400 VRB03KT P6SM BKN250
     FM031800 01005KT P6SM SCT040 BKN080
     FM040000 04005KT P6SM FEW250
     FM040800 VRB03KT P6SM SKC=



000
FTUS41 KBUF 031148
TAFROC
TAF
KROC 031148Z 0312/0412 24004KT 3SM BR SCT050 BKN250
      TEMPO 0312/0313 2SM BR
     FM031400 26004KT P6SM SCT050 BKN250
     FM031700 34006KT P6SM BKN040 BKN250
     FM032300 03006KT P6SM SCT100
     FM040900 05004KT 4SM BR SCT250=



000
FTUS41 KBUF 031148
TAFBUF
TAF
KBUF 031148Z 0312/0412 19004KT 4SM BR BKN004
     FM031330 23004KT 6SM HZ SCT006 SCT130 BKN250
     FM031600 26006KT P6SM SCT040 BKN250
     FM032000 31006KT P6SM FEW040 SCT250
     FM040000 03006KT P6SM SCT250
     FM040400 08005KT P6SM SCT100=



000
FTUS41 KBUF 031148
TAFIAG
TAF
KIAG 031148Z 0312/0412 VRB03KT 1/4SM FG VV002
     FM031300 24004KT 1SM BR BKN004
     FM031400 24004KT P6SM SCT004 BKN025
     FM031600 30006KT P6SM SCT040 BKN250
     FM032000 35005KT P6SM FEW040 SCT100
     FM040000 06004KT P6SM SCT100
     FM040900 07005KT 4SM BR SCT250=



000
FTUS41 KBUF 031119 AAC
TAFROC
TAF AMD
KROC 031119Z 0311/0406 24004KT 3SM BR FEW080 SCT250
      TEMPO 0311/0313 2SM BR
     FM031400 29008KT P6SM SCT040 BKN130
     FM031700 35006KT P6SM BKN040
     FM032300 03006KT P6SM SCT130=



000
FTUS41 KBUF 031119 AAC
TAFROC
TAF AMD
KROC 031119Z 0311/0406 24004KT 3SM BR FEW080 SCT250
      TEMPO 0311/0313 2SM BR
     FM031400 29008KT P6SM SCT040 BKN130
     FM031700 35006KT P6SM BKN040
     FM032300 03006KT P6SM SCT130=



000
FTUS41 KBUF 031118 AAD
TAFIAG
TAF AMD
KIAG 031118Z 0311/0406 24004KT 1/4SM FG VV002
     FM031330 29006KT P6SM SCT040 BKN130
     FM031600 34006KT P6SM BKN120
     FM032300 04004KT P6SM SCT120
     FM040400 08004KT P6SM SCT130=



000
FTUS41 KBUF 031118 AAD
TAFIAG
TAF AMD
KIAG 031118Z 0311/0406 24004KT 1/4SM FG VV002
     FM031330 29006KT P6SM SCT040 BKN130
     FM031600 34006KT P6SM BKN120
     FM032300 04004KT P6SM SCT120
     FM040400 08004KT P6SM SCT130=



000
FTUS41 KBUF 031050 AAD
TAFBUF
TAF AMD
KBUF 031050Z 0311/0406 21004KT 4SM BR BKN006
     FM031300 25006KT P6SM SCT040 BKN130
     FM031800 31006KT P6SM BKN100
     FM040000 03006KT P6SM SCT120
     FM040400 08005KT P6SM SCT120=



000
FTUS41 KBUF 031050 AAD
TAFBUF
TAF AMD
KBUF 031050Z 0311/0406 21004KT 4SM BR BKN006
     FM031300 25006KT P6SM SCT040 BKN130
     FM031800 31006KT P6SM BKN100
     FM040000 03006KT P6SM SCT120
     FM040400 08005KT P6SM SCT120=



000
FTUS41 KBUF 030949 AAC
TAFIAG
TAF AMD
KIAG 030949Z 0310/0406 24004KT 1SM BR VV003
      TEMPO 0310/0312 1/4SM FG
     FM031300 29006KT P6SM SCT040 BKN130
     FM031600 34006KT P6SM BKN120
     FM032300 04004KT P6SM SCT120
     FM040400 08004KT P6SM SCT130=



000
FTUS41 KBUF 030902 AAC
TAFART
TAF AMD
KART 030902Z 0309/0406 00000KT 1SM BR SCT060
      TEMPO 0309/0312 1/2SM FG
     FM031300 VRB03KT 4SM BR SCT003 SCT250
     FM031500 34006KT P6SM SCT040
     FM031800 01006KT P6SM SCT040
     FM040200 05004KT P6SM FEW250=



000
FTUS41 KBUF 030901 AAB
TAFJHW
TAF AMD
KJHW 030901Z 0309/0406 18003KT 1/4SM FG VV005
     FM031230 23004KT 4SM BR SCT002 BKN250
     FM031330 25004KT P6SM SCT040 BKN100
     FM031800 31006KT P6SM SCT040 BKN100
     FM040000 36004KT P6SM BKN100
     FM040400 05004KT P6SM SCT100
      AMD LTD TO CLD VIS AND WIND=



000
FTUS41 KBUF 030901 AAB
TAFJHW
TAF AMD
KJHW 030901Z 0309/0406 18003KT 1/4SM FG VV005
     FM031230 23004KT 4SM BR SCT002 BKN250
     FM031330 25004KT P6SM SCT040 BKN100
     FM031800 31006KT P6SM SCT040 BKN100
     FM040000 36004KT P6SM BKN100
     FM040400 05004KT P6SM SCT100
      AMD LTD TO CLD VIS AND WIND=



000
FTUS41 KBUF 030900 AAB
TAFROC
TAF AMD
KROC 030900Z 0309/0406 24004KT 5SM BR FEW080 SCT250
     FM031400 29008KT P6SM SCT040 BKN130
     FM031700 35006KT P6SM BKN040
     FM032300 03006KT P6SM SCT130=



000
FTUS41 KBUF 030859 AAC
TAFBUF
TAF AMD
KBUF 030859Z 0309/0406 21004KT 4SM BR FEW040 BKN250
     FM031300 25006KT P6SM SCT040 BKN130
     FM031800 31006KT P6SM BKN100
     FM040000 03006KT P6SM SCT120
     FM040400 08005KT P6SM SCT120=



000
FTUS41 KBUF 030859 AAC
TAFBUF
TAF AMD
KBUF 030859Z 0309/0406 21004KT 4SM BR FEW040 BKN250
     FM031300 25006KT P6SM SCT040 BKN130
     FM031800 31006KT P6SM BKN100
     FM040000 03006KT P6SM SCT120
     FM040400 08005KT P6SM SCT120=



000
FTUS41 KBUF 030858 AAB
TAFIAG
TAF AMD
KIAG 030858Z 0309/0406 23004KT 2SM BR OVC004
      TEMPO 0309/0312 1SM BR
     FM031300 29006KT P6SM SCT040 BKN130
     FM031600 34006KT P6SM BKN120
     FM032300 04004KT P6SM SCT120
     FM040400 08004KT P6SM SCT130=



000
FTUS41 KBUF 030858 AAB
TAFIAG
TAF AMD
KIAG 030858Z 0309/0406 23004KT 2SM BR OVC004
      TEMPO 0309/0312 1SM BR
     FM031300 29006KT P6SM SCT040 BKN130
     FM031600 34006KT P6SM BKN120
     FM032300 04004KT P6SM SCT120
     FM040400 08004KT P6SM SCT130=



000
FTUS41 KBUF 030840 AAB
TAFART
TAF AMD
KART 030840Z 0309/0406 00000KT 2SM BR SCT060
      TEMPO 0309/0312 1SM BR
     FM031300 VRB03KT 4SM BR SCT003 SCT250
     FM031500 34006KT P6SM SCT040
     FM031800 01006KT P6SM SCT040
     FM040200 05004KT P6SM FEW250=



000
FTUS41 KBUF 030840 AAB
TAFART
TAF AMD
KART 030840Z 0309/0406 00000KT 2SM BR SCT060
      TEMPO 0309/0312 1SM BR
     FM031300 VRB03KT 4SM BR SCT003 SCT250
     FM031500 34006KT P6SM SCT040
     FM031800 01006KT P6SM SCT040
     FM040200 05004KT P6SM FEW250=



000
FTUS41 KBUF 030838 AAA
TAFIAG
TAF AMD
KIAG 030838Z 0309/0406 22004KT 2SM BR BKN004
     FM031200 29006KT P6SM SCT040 BKN130
     FM031600 33006KT P6SM BKN120
     FM032300 04004KT P6SM SCT120
     FM040400 08004KT P6SM SCT130=



000
FTUS41 KBUF 030823 AAB
TAFBUF
TAF AMD
KBUF 030823Z 0308/0406 20004KT 6SM HZ BKN250
     FM030930 21004KT 4SM BR BKN250
     FM031300 26006KT P6SM SCT040 BKN130
     FM031800 31006KT P6SM BKN100
     FM040000 03006KT P6SM SCT120
     FM040400 08005KT P6SM SCT120=



000
FTUS41 KBUF 030823 AAB
TAFBUF
TAF AMD
KBUF 030823Z 0308/0406 20004KT 6SM HZ BKN250
     FM030930 21004KT 4SM BR BKN250
     FM031300 26006KT P6SM SCT040 BKN130
     FM031800 31006KT P6SM BKN100
     FM040000 03006KT P6SM SCT120
     FM040400 08005KT P6SM SCT120=



000
FTUS41 KBUF 030804 AAA
TAFART
TAF AMD
KART 030804Z 0308/0406 00000KT 3SM BR SCT250
      TEMPO 0308/0309 2SM BR
     FM030900 00000KT 1SM BR SCT003 SCT250
     FM031300 VRB03KT 4SM BR SCT003 SCT250
     FM031500 34006KT P6SM SCT040
     FM031800 01006KT P6SM SCT040
     FM040200 05004KT P6SM FEW250=



000
FTUS41 KBUF 030804 AAA
TAFART
TAF AMD
KART 030804Z 0308/0406 00000KT 3SM BR SCT250
      TEMPO 0308/0309 2SM BR
     FM030900 00000KT 1SM BR SCT003 SCT250
     FM031300 VRB03KT 4SM BR SCT003 SCT250
     FM031500 34006KT P6SM SCT040
     FM031800 01006KT P6SM SCT040
     FM040200 05004KT P6SM FEW250=



000
FTUS41 KBUF 030803 AAA
TAFROC
TAF AMD
KROC 030803Z 0308/0406 23004KT 5SM BR FEW080 SCT250
     FM031400 28008KT P6SM SCT040 BKN130
     FM031700 34006KT P6SM BKN040
     FM032300 03006KT P6SM SCT130=



000
FTUS41 KBUF 030759 AAA
TAFJHW
TAF AMD
KJHW 030759Z 0308/0406 18003KT 1/4SM FG BKN002
     FM031200 23004KT 4SM BR SCT002 BKN250
     FM031330 26004KT P6SM SCT040 BKN100
     FM031800 31006KT P6SM SCT040 BKN100
     FM040000 36004KT P6SM BKN100
     FM040400 05004KT P6SM BKN100
      AMD LTD TO CLD VIS AND WIND=



000
FTUS41 KBUF 030759 AAA
TAFJHW
TAF AMD
KJHW 030759Z 0308/0406 18003KT 1/4SM FG BKN002
     FM031200 23004KT 4SM BR SCT002 BKN250
     FM031330 26004KT P6SM SCT040 BKN100
     FM031800 31006KT P6SM SCT040 BKN100
     FM040000 36004KT P6SM BKN100
     FM040400 05004KT P6SM BKN100
      AMD LTD TO CLD VIS AND WIND=



000
FTUS41 KBUF 030600 CCA
TAFJHW
TAF COR
KJHW 030600Z 0306/0406 VRB03KT 1SM BR BKN002
      TEMPO 0306/0308 2SM BR SCT002 BKN250
     FM030800 00000KT 1/2SM FG BKN002
     FM031200 23004KT 4SM BR SCT002 BKN250
     FM031330 26004KT P6SM SCT040 BKN100
     FM031800 31006KT P6SM SCT040 BKN100
     FM040000 36004KT P6SM BKN100
     FM040400 05004KT P6SM BKN100
      AMD LTD TO CLD VIS AND WIND=



000
FTUS41 KBUF 030600 CCA
TAFJHW
TAF COR
KJHW 030600Z 0306/0406 VRB03KT 1SM BR BKN002
      TEMPO 0306/0308 2SM BR SCT002 BKN250
     FM030800 00000KT 1/2SM FG BKN002
     FM031200 23004KT 4SM BR SCT002 BKN250
     FM031330 26004KT P6SM SCT040 BKN100
     FM031800 31006KT P6SM SCT040 BKN100
     FM040000 36004KT P6SM BKN100
     FM040400 05004KT P6SM BKN100
      AMD LTD TO CLD VIS AND WIND=



000
FTUS41 KBUF 030559
TAFBUF
TAF
KBUF 030559Z 0306/0406 22006KT 6SM HZ BKN250
      TEMPO 0306/0308 4SM HZ
     FM030800 22006KT 3SM BR BKN250
     FM031300 26006KT P6SM SCT040 BKN130
     FM031800 31006KT P6SM BKN100
     FM040000 03006KT P6SM SCT120
     FM040400 08005KT P6SM SCT120=



000
FTUS41 KBUF 030559
TAFIAG
TAF
KIAG 030559Z 0306/0406 21004KT 4SM BR SCT130 BKN250
      TEMPO 0306/0308 2SM BR
     FM030815 22004KT 2SM BR SCT250
     FM031200 29006KT P6SM SCT040 BKN130
     FM031600 33006KT P6SM BKN120
     FM032300 04004KT P6SM SCT120
     FM040400 08004KT P6SM SCT130=



000
FTUS41 KBUF 030559
TAFJHW
TAF
KJHW 030559Z 0306/0406 VRB03KT 2SM BR BKN250
      TEMPO 0306/0308 3SM BR
     FM030800 00000KT 1/2SM FG BKN002
     FM031200 23004KT 4SM BR SCT002 BKN250
     FM031330 26004KT P6SM SCT040 BKN100
     FM031800 31006KT P6SM SCT040 BKN100
     FM040000 36004KT P6SM BKN100
     FM040400 05004KT P6SM BKN100
      AMD LTD TO CLD VIS AND WIND=



000
FTUS41 KBUF 030559
TAFROC
TAF
KROC 030559Z 0306/0406 23004KT 5SM BR FEW080 SCT250
      TEMPO 0308/0312 2SM BR
     FM031400 28008KT P6SM SCT040 BKN130
     FM031700 34006KT P6SM BKN040
     FM032300 03006KT P6SM SCT130=



000
FTUS41 KBUF 030559
TAFART
TAF
KART 030559Z 0306/0406 00000KT 3SM BR SCT250
      TEMPO 0306/0308 2SM BR
     FM030800 00000KT 1SM BR SCT003 SCT250
     FM031000 00000KT 1/2SM FG BKN003
     FM031300 VRB03KT 4SM BR SCT003 SCT250
     FM031500 34006KT P6SM SCT040
     FM031800 01006KT P6SM SCT040
     FM040200 05004KT P6SM FEW250=



000
FTUS41 KBUF 030559
TAFIAG
TAF
KIAG 030559Z 0306/0406 21004KT 4SM BR SCT130 BKN250
      TEMPO 0306/0308 2SM BR
     FM030815 22004KT 2SM BR SCT250
     FM031200 29006KT P6SM SCT040 BKN130
     FM031600 33006KT P6SM BKN120
     FM032300 04004KT P6SM SCT120
     FM040400 08004KT P6SM SCT130=



000
FTUS41 KBUF 030559
TAFBUF
TAF
KBUF 030559Z 0306/0406 22006KT 6SM HZ BKN250
      TEMPO 0306/0308 4SM HZ
     FM030800 22006KT 3SM BR BKN250
     FM031300 26006KT P6SM SCT040 BKN130
     FM031800 31006KT P6SM BKN100
     FM040000 03006KT P6SM SCT120
     FM040400 08005KT P6SM SCT120=



000
FTUS41 KBUF 030559
TAFART
TAF
KART 030559Z 0306/0406 00000KT 3SM BR SCT250
      TEMPO 0306/0308 2SM BR
     FM030800 00000KT 1SM BR SCT003 SCT250
     FM031000 00000KT 1/2SM FG BKN003
     FM031300 VRB03KT 4SM BR SCT003 SCT250
     FM031500 34006KT P6SM SCT040
     FM031800 01006KT P6SM SCT040
     FM040200 05004KT P6SM FEW250=



000
FTUS41 KBUF 030559
TAFJHW
TAF
KJHW 030559Z 0306/0406 VRB03KT 2SM BR BKN250
      TEMPO 0306/0308 3SM BR
     FM030800 00000KT 1/2SM FG BKN002
     FM031200 23004KT 4SM BR SCT002 BKN250
     FM031330 26004KT P6SM SCT040 BKN100
     FM031800 31006KT P6SM SCT040 BKN100
     FM040000 36004KT P6SM BKN100
     FM040400 05004KT P6SM BKN100
      AMD LTD TO CLD VIS AND WIND=



000
FTUS41 KBUF 030559
TAFROC
TAF
KROC 030559Z 0306/0406 23004KT 5SM BR FEW080 SCT250
      TEMPO 0308/0312 2SM BR
     FM031400 28008KT P6SM SCT040 BKN130
     FM031700 34006KT P6SM BKN040
     FM032300 03006KT P6SM SCT130=



000
FTUS41 KBUF 030322 AAA
TAFBUF
TAF AMD
KBUF 030322Z 0303/0324 22007KT P6SM SCT200
     FM030500 23005KT 4SM BR SCT040
     FM031100 VRB03KT 2SM BR BKN008
     FM031400 30006KT P6SM BKN040
     FM032000 36008KT P6SM SCT040=



000
FTUS41 KBUF 030322 AAA
TAFART
TAF AMD
KART 030322Z 0303/0324 VRB03KT 3SM BR SCT015
     FM030500 00000KT 2SM BR BKN007
     FM030900 35005KT 1/2SM FG BKN003
     FM031400 34004KT 3SM BR BKN015
     FM031600 01008KT P6SM SCT040=



000
FTUS41 KBUF 030322 AAA
TAFIAG
TAF AMD
KIAG 030322Z 0303/0324 22005KT P6SM SCT200
     FM030400 VRB03KT 4SM BR SCT040
     FM030900 VRB03KT 1SM BR BKN008
     FM031300 33005KT P6SM BKN040
     FM032000 36008KT P6SM SCT040=



000
FTUS41 KBUF 030322 AAA
TAFJHW
TAF AMD
KJHW 030322Z 0303/0324 VRB03KT 4SM BR SCT007 BKN200
     FM030500 00000KT 1/2SM FG BKN003
     FM031200 VRB03KT P6SM BKN008
     FM031400 32006KT P6SM BKN025
     FM031800 34008KT P6SM SCT040
      AMD LTD TO CLD VIS AND WIND=



000
FTUS41 KBUF 030322 AAA
TAFROC
TAF AMD
KROC 030322Z 0303/0324 24005KT P6SM SCT040
     FM030500 23004KT 4SM BR SCT040
     FM031300 32008KT P6SM BKN025
     FM031800 01008KT P6SM SCT040=



000
FTUS41 KBUF 022340
TAFBUF
TAF
KBUF 022340Z 0300/0324 23008KT 6SM BR SCT200
     FM030300 23005KT 4SM BR SCT040
     FM031000 VRB03KT 2SM BR SCT008
     FM031400 30006KT P6SM BKN040
     FM032000 36008KT P6SM SCT040=



000
FTUS41 KBUF 022340
TAFJHW
TAF
KJHW 022340Z 0300/0324 VRB03KT P6SM SCT040
     FM030300 VRB03KT 4SM BR SCT060
     FM030500 00000KT 1/2SM FG BKN003
     FM031200 VRB03KT P6SM BKN015
     FM031400 32006KT P6SM BKN025
     FM032000 34008KT P6SM SCT040
      AMD LTD TO CLD VIS AND WIND=



000
FTUS41 KBUF 022340
TAFROC
TAF
KROC 022340Z 0300/0324 26005KT P6SM SCT040
     FM030400 23004KT 4SM BR SCT040
     FM031300 32008KT P6SM BKN025
     FM031800 01008KT P6SM SCT040=



000
FTUS41 KBUF 022340
TAFJHW
TAF
KJHW 022340Z 0300/0324 VRB03KT P6SM SCT040
     FM030300 VRB03KT 4SM BR SCT060
     FM030500 00000KT 1/2SM FG BKN003
     FM031200 VRB03KT P6SM BKN015
     FM031400 32006KT P6SM BKN025
     FM032000 34008KT P6SM SCT040
      AMD LTD TO CLD VIS AND WIND=



000
FTUS41 KBUF 022340
TAFIAG
TAF
KIAG 022340Z 0300/0324 23008KT P6SM SCT200
     FM030400 VRB03KT 4SM BR SCT040
     FM030900 VRB03KT 2SM BR SCT008
     FM031300 33005KT P6SM BKN040
     FM032000 36008KT P6SM SCT040=



000
FTUS41 KBUF 022340
TAFIAG
TAF
KIAG 022340Z 0300/0324 23008KT P6SM SCT200
     FM030400 VRB03KT 4SM BR SCT040
     FM030900 VRB03KT 2SM BR SCT008
     FM031300 33005KT P6SM BKN040
     FM032000 36008KT P6SM SCT040=



000
FTUS41 KBUF 022340
TAFART
TAF
KART 022340Z 0300/0324 VRB03KT 5SM BR SCT015
     FM030500 00000KT 2SM BR BKN007
     FM030900 35005KT 1/2SM FG BKN003
     FM031400 34004KT 3SM BR SCT015
     FM031600 01008KT P6SM SCT040=



000
FTUS41 KBUF 022340
TAFBUF
TAF
KBUF 022340Z 0300/0324 23008KT 6SM BR SCT200
     FM030300 23005KT 4SM BR SCT040
     FM031000 VRB03KT 2SM BR SCT008
     FM031400 30006KT P6SM BKN040
     FM032000 36008KT P6SM SCT040=



000
FTUS41 KBUF 022340
TAFART
TAF
KART 022340Z 0300/0324 VRB03KT 5SM BR SCT015
     FM030500 00000KT 2SM BR BKN007
     FM030900 35005KT 1/2SM FG BKN003
     FM031400 34004KT 3SM BR SCT015
     FM031600 01008KT P6SM SCT040=



000
FTUS41 KBUF 022340
TAFROC
TAF
KROC 022340Z 0300/0324 26005KT P6SM SCT040
     FM030400 23004KT 4SM BR SCT040
     FM031300 32008KT P6SM BKN025
     FM031800 01008KT P6SM SCT040=



000
FTUS41 KBUF 022044 AAA
TAFJHW
TAF AMD
KJHW 022044Z 0221/0318 32010KT P6SM SCT040
     FM022300 28005KT P6SM SCT040
     FM030300 VRB03KT 4SM BR SCT060
     FM030500 00000KT 1/2SM FG BKN003
     FM031300 00000KT P6SM BKN020
     FM031600 29005KT P6SM BKN030
      AMD LTD TO CLD VIS AND WIND=



000
FTUS41 KBUF 022044 AAB
TAFBUF
TAF AMD
KBUF 022044Z 0221/0318 24012KT P6SM SCT040
     FM030000 22007KT 6SM BR SCT050
     FM030300 23005KT 4SM BR SCT045
     FM031300 23004KT 6SM BR BKN040
     FM031600 25004KT P6SM BKN060=



000
FTUS41 KBUF 022044 AAA
TAFART
TAF AMD
KART 022044Z 0221/0318 25008KT P6SM SCT200
     FM030000 VRB03KT P6SM SCT040
     FM030300 00000KT 4SM BR SCT040
     FM030800 00000KT P6SM BKN045
     FM031600 32004KT P6SM BKN060=



000
FTUS41 KBUF 022044 AAB
TAFIAG
TAF AMD
KIAG 022044Z 0221/0318 23010KT P6SM VCTS SCT040CB
     FM022200 22006KT P6SM SCT040
     FM030400 VRB03KT 4SM BR SCT050
     FM031300 VRB03KT P6SM BKN050
     FM031600 33005KT P6SM BKN060=



000
FTUS41 KBUF 022044 AAA
TAFROC
TAF AMD
KROC 022044Z 0221/0318 36006KT P6SM VCTS SCT040CB
     FM022200 23005KT P6SM SCT040
     FM030300 23004KT 4SM BR SCT045
     FM031100 25006KT P6SM BKN060
     FM031500 29007KT P6SM BKN060
     FM031700 33008KT P6SM BKN060=



000
FTUS41 KBUF 022044 AAB
TAFBUF
TAF AMD
KBUF 022044Z 0221/0318 24012KT P6SM SCT040
     FM030000 22007KT 6SM BR SCT050
     FM030300 23005KT 4SM BR SCT045
     FM031300 23004KT 6SM BR BKN040
     FM031600 25004KT P6SM BKN060=



000
FTUS41 KBUF 022044 AAB
TAFIAG
TAF AMD
KIAG 022044Z 0221/0318 23010KT P6SM VCTS SCT040CB
     FM022200 22006KT P6SM SCT040
     FM030400 VRB03KT 4SM BR SCT050
     FM031300 VRB03KT P6SM BKN050
     FM031600 33005KT P6SM BKN060=



000
FTUS41 KBUF 022044 AAA
TAFROC
TAF AMD
KROC 022044Z 0221/0318 36006KT P6SM VCTS SCT040CB
     FM022200 23005KT P6SM SCT040
     FM030300 23004KT 4SM BR SCT045
     FM031100 25006KT P6SM BKN060
     FM031500 29007KT P6SM BKN060
     FM031700 33008KT P6SM BKN060=



000
FTUS41 KBUF 022044 AAA
TAFART
TAF AMD
KART 022044Z 0221/0318 25008KT P6SM SCT200
     FM030000 VRB03KT P6SM SCT040
     FM030300 00000KT 4SM BR SCT040
     FM030800 00000KT P6SM BKN045
     FM031600 32004KT P6SM BKN060=



000
FTUS41 KBUF 021814 AAA
TAFIAG
TAF AMD
KIAG 021814Z 0218/0318 22010KT P6SM VCTS BKN035CB
     FM022300 22006KT P6SM BKN040
     FM030400 VRB03KT 4SM BR SCT050
     FM031300 VRB03KT P6SM BKN050
     FM031600 33005KT P6SM BKN060=



000
FTUS41 KBUF 021814 AAA
TAFIAG
TAF AMD
KIAG 021814Z 0218/0318 22010KT P6SM VCTS BKN035CB
     FM022300 22006KT P6SM BKN040
     FM030400 VRB03KT 4SM BR SCT050
     FM031300 VRB03KT P6SM BKN050
     FM031600 33005KT P6SM BKN060=



000
FTUS41 KBUF 021729
TAFBUF
TAF
KBUF 021729Z 0218/0318 24012KT P6SM SCT035
     FM030000 22007KT 6SM BR SCT050
     FM030300 23005KT 4SM BR SCT045
     FM031300 23004KT 6SM BR BKN040
     FM031600 25004KT P6SM BKN060=



000
FTUS41 KBUF 021729
TAFIAG
TAF
KIAG 021729Z 0218/0318 23010KT P6SM SCT035
     FM030100 22006KT P6SM BKN040
     FM030400 VRB03KT 4SM BR SCT050
     FM031300 VRB03KT P6SM BKN050
     FM031600 33005KT P6SM BKN060=



000
FTUS41 KBUF 021729
TAFROC
TAF
KROC 021729Z 0218/0318 30006KT P6SM BKN035
     FM022000 33005KT P6SM SCT040
     FM030000 23004KT P6SM SCT060
     FM030300 23004KT 4SM BR SCT045
     FM031100 25006KT P6SM BKN060
     FM031500 29007KT P6SM BKN060
     FM031700 33008KT P6SM BKN060=



000
FTUS41 KBUF 021729
TAFBUF
TAF
KBUF 021729Z 0218/0318 24012KT P6SM SCT035
     FM030000 22007KT 6SM BR SCT050
     FM030300 23005KT 4SM BR SCT045
     FM031300 23004KT 6SM BR BKN040
     FM031600 25004KT P6SM BKN060=



000
FTUS41 KBUF 021729
TAFART
TAF
KART 021729Z 0218/0318 23008KT P6SM BKN012
     FM021900 24007KT P6SM SCT030
     FM030000 21004KT P6SM SCT250
     FM030300 00000KT 4SM BR SCT060
     FM030800 00000KT P6SM BKN045
     FM031600 32004KT P6SM BKN060=



000
FTUS41 KBUF 021729
TAFJHW
TAF
KJHW 021729Z 0218/0318 27009KT P6SM BKN035
     FM022300 28005KT P6SM SCT040
     FM030300 VRB03KT 4SM BR SCT060
     FM030500 00000KT 1/2SM FG BKN003
     FM031300 00000KT P6SM BKN020
     FM031600 29005KT P6SM BKN030
      AMD LTD TO CLD VIS AND WIND=



000
FTUS41 KBUF 021729
TAFIAG
TAF
KIAG 021729Z 0218/0318 23010KT P6SM SCT035
     FM030100 22006KT P6SM BKN040
     FM030400 VRB03KT 4SM BR SCT050
     FM031300 VRB03KT P6SM BKN050
     FM031600 33005KT P6SM BKN060=



000
FTUS41 KBUF 021729
TAFROC
TAF
KROC 021729Z 0218/0318 30006KT P6SM BKN035
     FM022000 33005KT P6SM SCT040
     FM030000 23004KT P6SM SCT060
     FM030300 23004KT 4SM BR SCT045
     FM031100 25006KT P6SM BKN060
     FM031500 29007KT P6SM BKN060
     FM031700 33008KT P6SM BKN060=



000
FTUS41 KBUF 021729
TAFJHW
TAF
KJHW 021729Z 0218/0318 27009KT P6SM BKN035
     FM022300 28005KT P6SM SCT040
     FM030300 VRB03KT 4SM BR SCT060
     FM030500 00000KT 1/2SM FG BKN003
     FM031300 00000KT P6SM BKN020
     FM031600 29005KT P6SM BKN030
      AMD LTD TO CLD VIS AND WIND=



000
FTUS41 KBUF 021729
TAFART
TAF
KART 021729Z 0218/0318 23008KT P6SM BKN012
     FM021900 24007KT P6SM SCT030
     FM030000 21004KT P6SM SCT250
     FM030300 00000KT 4SM BR SCT060
     FM030800 00000KT P6SM BKN045
     FM031600 32004KT P6SM BKN060=



000
FTUS41 KBUF 021453 AAC
TAFBUF
TAF AMD
KBUF 021453Z 0215/0312 24010KT P6SM SCT035
     FM030000 22007KT P6SM SCT250
     FM030400 22005KT P6SM SCT050
     FM030800 22004KT P6SM BKN045=



000
FTUS41 KBUF 021453 AAB
TAFART
TAF AMD
KART 021453Z 0215/0312 22005KT 2SM BR OVC008
     FM021800 25008KT P6SM SCT250
     FM030000 VRB03KT P6SM FEW250
     FM030400 VRB03KT P6SM SCT060
     FM030800 VRB03KT P6SM BKN050=



000
FTUS41 KBUF 021453 AAB
TAFIAG
TAF AMD
KIAG 021453Z 0215/0312 23009KT P6SM SCT035
     FM030000 21008KT P6SM SCT060
     FM030500 VRB03KT 3SM BR SCT050
     FM030900 VRB03KT P6SM BKN045=



000
FTUS41 KBUF 021453 AAC
TAFJHW
TAF AMD
KJHW 021453Z 0215/0312 24007KT P6SM SCT035
     FM022300 VRB03KT P6SM FEW250
     FM030500 VRB03KT P6SM SCT050
     FM030700 VRB03KT 1/2SM FG BKN003
      AMD LTD TO CLD VIS AND WIND=



000
FTUS41 KBUF 021453 AAA
TAFROC
TAF AMD
KROC 021453Z 0215/0312 25007KT P6SM SCT035
     FM021900 32006KT P6SM SCT045
     FM022300 VRB03KT P6SM SCT250
     FM030200 24004KT P6SM SCT060
     FM030900 25004KT P6SM BKN045=



000
FTUS41 KBUF 021453 AAC
TAFJHW
TAF AMD
KJHW 021453Z 0215/0312 24007KT P6SM SCT035
     FM022300 VRB03KT P6SM FEW250
     FM030500 VRB03KT P6SM SCT050
     FM030700 VRB03KT 1/2SM FG BKN003
      AMD LTD TO CLD VIS AND WIND=



000
FTUS41 KBUF 021453 AAB
TAFART
TAF AMD
KART 021453Z 0215/0312 22005KT 2SM BR OVC008
     FM021800 25008KT P6SM SCT250
     FM030000 VRB03KT P6SM FEW250
     FM030400 VRB03KT P6SM SCT060
     FM030800 VRB03KT P6SM BKN050=



000
FTUS41 KBUF 021453 AAA
TAFROC
TAF AMD
KROC 021453Z 0215/0312 25007KT P6SM SCT035
     FM021900 32006KT P6SM SCT045
     FM022300 VRB03KT P6SM SCT250
     FM030200 24004KT P6SM SCT060
     FM030900 25004KT P6SM BKN045=



000
FTUS41 KBUF 021453 AAC
TAFBUF
TAF AMD
KBUF 021453Z 0215/0312 24010KT P6SM SCT035
     FM030000 22007KT P6SM SCT250
     FM030400 22005KT P6SM SCT050
     FM030800 22004KT P6SM BKN045=



000
FTUS41 KBUF 021453 AAB
TAFIAG
TAF AMD
KIAG 021453Z 0215/0312 23009KT P6SM SCT035
     FM030000 21008KT P6SM SCT060
     FM030500 VRB03KT 3SM BR SCT050
     FM030900 VRB03KT P6SM BKN045=



000
FTUS41 KBUF 021318 AAB
TAFJHW
TAF AMD
KJHW 021318Z 0213/0312 22004KT 6SM BR SCT035
     FM021400 28007KT P6SM SCT045
     FM022300 VRB03KT P6SM FEW250
     FM030500 VRB03KT P6SM SCT050
     FM030700 VRB03KT 1/2SM FG BKN003
      AMD LTD TO CLD VIS AND WIND=



000
FTUS41 KBUF 021236 AAA
TAFART
TAF AMD
KART 021236Z 0213/0312 23004KT 2SM BR BKN006
     FM021500 24005KT P6SM SCT025
     FM021800 25008KT P6SM SCT250
     FM030000 VRB03KT P6SM FEW250
     FM030400 VRB03KT P6SM SCT060
     FM030800 VRB03KT P6SM BKN050=



000
FTUS41 KBUF 021236 AAA
TAFART
TAF AMD
KART 021236Z 0213/0312 23004KT 2SM BR BKN006
     FM021500 24005KT P6SM SCT025
     FM021800 25008KT P6SM SCT250
     FM030000 VRB03KT P6SM FEW250
     FM030400 VRB03KT P6SM SCT060
     FM030800 VRB03KT P6SM BKN050=



000
FTUS41 KBUF 021235 AAA
TAFJHW
TAF AMD
KJHW 021235Z 0213/0312 22004KT 2SM BR SCT035
     FM021400 28007KT P6SM SCT045
     FM022300 VRB03KT P6SM FEW250
     FM030500 VRB03KT P6SM SCT050
     FM030700 VRB03KT 1/2SM FG BKN003
      AMD LTD TO CLD VIS AND WIND=



000
FTUS41 KBUF 021235 AAA
TAFIAG
TAF AMD
KIAG 021235Z 0213/0312 22006KT 6SM BR SCT025
     FM021600 24009KT P6SM SCT045
     FM030000 21008KT P6SM SCT060
     FM030500 VRB03KT 3SM BR SCT050
     FM030900 VRB03KT P6SM BKN045=



000
FTUS41 KBUF 021235 AAA
TAFIAG
TAF AMD
KIAG 021235Z 0213/0312 22006KT 6SM BR SCT025
     FM021600 24009KT P6SM SCT045
     FM030000 21008KT P6SM SCT060
     FM030500 VRB03KT 3SM BR SCT050
     FM030900 VRB03KT P6SM BKN045=



000
FTUS41 KBUF 021235 AAA
TAFJHW
TAF AMD
KJHW 021235Z 0213/0312 22004KT 2SM BR SCT035
     FM021400 28007KT P6SM SCT045
     FM022300 VRB03KT P6SM FEW250
     FM030500 VRB03KT P6SM SCT050
     FM030700 VRB03KT 1/2SM FG BKN003
      AMD LTD TO CLD VIS AND WIND=



000
FTUS41 KBUF 021130
TAFJHW
TAF
KJHW 021130Z 0212/0312 20004KT 1SM BR SCT001 BKN040
      TEMPO 0212/0213 1/4SM FG VV001
     FM021300 22004KT P6SM SCT040
     FM021600 28007KT P6SM SCT045
     FM022300 VRB03KT P6SM FEW250
     FM030500 VRB03KT P6SM SCT050
     FM030700 VRB03KT 1/2SM FG BKN003
      AMD LTD TO CLD VIS AND WIND=



000
FTUS41 KBUF 021130
TAFBUF
TAF
KBUF 021130Z 0212/0312 20004KT 3SM BR SCT007
     FM021300 22006KT P6SM SCT040
     FM021600 24010KT P6SM SCT045
     FM030000 22007KT P6SM SCT250
     FM030400 22005KT P6SM SCT050
     FM030800 22004KT P6SM BKN045=



000
FTUS41 KBUF 021130
TAFART
TAF
KART 021130Z 0212/0312 VRB03KT 1SM BR SCT003
      TEMPO 0212/0214 1/4SM FG VV001
     FM021400 24005KT P6SM SCT040
     FM021800 25008KT P6SM SCT250
     FM030000 VRB03KT P6SM FEW250
     FM030400 VRB03KT P6SM SCT060
     FM030800 VRB03KT P6SM BKN050=



000
FTUS41 KBUF 021130
TAFROC
TAF
KROC 021130Z 0212/0312 24005KT 2SM BR FEW003
     FM021300 27005KT P6SM SCT250
     FM021700 30006KT P6SM SCT045
     FM022300 VRB03KT P6SM SCT250
     FM030200 24004KT P6SM SCT060
     FM030900 25004KT P6SM BKN045=



000
FTUS41 KBUF 021130
TAFIAG
TAF
KIAG 021130Z 0212/0312 19004KT 3SM BR SCT002
      TEMPO 0212/0213 1/4SM FG BKN002
     FM021300 22006KT P6SM SCT040
     FM021600 24009KT P6SM SCT045
     FM030000 21008KT P6SM SCT060
     FM030500 VRB03KT 3SM BR SCT050
     FM030900 VRB03KT P6SM BKN045=



000
FTUS41 KBUF 021130
TAFIAG
TAF
KIAG 021130Z 0212/0312 19004KT 3SM BR SCT002
      TEMPO 0212/0213 1/4SM FG BKN002
     FM021300 22006KT P6SM SCT040
     FM021600 24009KT P6SM SCT045
     FM030000 21008KT P6SM SCT060
     FM030500 VRB03KT 3SM BR SCT050
     FM030900 VRB03KT P6SM BKN045=



000
FTUS41 KBUF 021130
TAFBUF
TAF
KBUF 021130Z 0212/0312 20004KT 3SM BR SCT007
     FM021300 22006KT P6SM SCT040
     FM021600 24010KT P6SM SCT045
     FM030000 22007KT P6SM SCT250
     FM030400 22005KT P6SM SCT050
     FM030800 22004KT P6SM BKN045=



000
FTUS41 KBUF 021130
TAFJHW
TAF
KJHW 021130Z 0212/0312 20004KT 1SM BR SCT001 BKN040
      TEMPO 0212/0213 1/4SM FG VV001
     FM021300 22004KT P6SM SCT040
     FM021600 28007KT P6SM SCT045
     FM022300 VRB03KT P6SM FEW250
     FM030500 VRB03KT P6SM SCT050
     FM030700 VRB03KT 1/2SM FG BKN003
      AMD LTD TO CLD VIS AND WIND=



000
FTUS41 KBUF 021130
TAFROC
TAF
KROC 021130Z 0212/0312 24005KT 2SM BR FEW003
     FM021300 27005KT P6SM SCT250
     FM021700 30006KT P6SM SCT045
     FM022300 VRB03KT P6SM SCT250
     FM030200 24004KT P6SM SCT060
     FM030900 25004KT P6SM BKN045=



000
FTUS41 KBUF 021130
TAFART
TAF
KART 021130Z 0212/0312 VRB03KT 1SM BR SCT003
      TEMPO 0212/0214 1/4SM FG VV001
     FM021400 24005KT P6SM SCT040
     FM021800 25008KT P6SM SCT250
     FM030000 VRB03KT P6SM FEW250
     FM030400 VRB03KT P6SM SCT060
     FM030800 VRB03KT P6SM BKN050=



000
FTUS41 KBUF 020844 AAA
TAFART
TAF AMD
KART 020844Z 0209/0306 VRB03KT 2SM BR SCT003
      TEMPO 0209/0213 1/2SM FG BKN003
     FM021400 23005KT P6SM BKN015
     FM021700 24010KT P6SM SCT035=



000
FTUS41 KBUF 020844 AAA
TAFBUF
TAF AMD
KBUF 020844Z 0209/0306 21005KT 3SM BR SCT003
      TEMPO 0209/0213 1SM BR
     FM021300 22006KT P6SM SCT007
     FM021700 24010KT P6SM SCT040=



000
FTUS41 KBUF 020844 AAA
TAFIAG
TAF AMD
KIAG 020844Z 0209/0306 VRB03KT 2SM BR SCT003
      TEMPO 0209/0213 1/2SM FG BKN003
     FM021300 22005KT P6SM SCT007
     FM021700 24010KT P6SM SCT040=



000
FTUS41 KBUF 020844 AAA
TAFBUF
TAF AMD
KBUF 020844Z 0209/0306 21005KT 3SM BR SCT003
      TEMPO 0209/0213 1SM BR
     FM021300 22006KT P6SM SCT007
     FM021700 24010KT P6SM SCT040=



000
FTUS41 KBUF 020844 AAA
TAFROC
TAF AMD
KROC 020844Z 0209/0306 23004KT 5SM BR FEW250
      TEMPO 0209/0213 2SM BR
     FM021300 24005KT P6SM SCT007
     FM021600 28005KT P6SM SCT030
     FM021900 35007KT P6SM SKC=



000
FTUS41 KBUF 020844 AAA
TAFJHW
TAF AMD
KJHW 020844Z 0209/0306 19003KT 1/4SM FG BKN002
     FM021400 25006KT P6SM SCT007
     FM021700 30008KT P6SM SCT035
      AMD LTD TO CLD VIS AND WIND=



000
FTUS41 KBUF 020844 AAA
TAFIAG
TAF AMD
KIAG 020844Z 0209/0306 VRB03KT 2SM BR SCT003
      TEMPO 0209/0213 1/2SM FG BKN003
     FM021300 22005KT P6SM SCT007
     FM021700 24010KT P6SM SCT040=



000
FTUS41 KBUF 020844 AAA
TAFART
TAF AMD
KART 020844Z 0209/0306 VRB03KT 2SM BR SCT003
      TEMPO 0209/0213 1/2SM FG BKN003
     FM021400 23005KT P6SM BKN015
     FM021700 24010KT P6SM SCT035=



000
FTUS41 KBUF 020844 AAA
TAFJHW
TAF AMD
KJHW 020844Z 0209/0306 19003KT 1/4SM FG BKN002
     FM021400 25006KT P6SM SCT007
     FM021700 30008KT P6SM SCT035
      AMD LTD TO CLD VIS AND WIND=



000
FTUS41 KBUF 020844 AAA
TAFROC
TAF AMD
KROC 020844Z 0209/0306 23004KT 5SM BR FEW250
      TEMPO 0209/0213 2SM BR
     FM021300 24005KT P6SM SCT007
     FM021600 28005KT P6SM SCT030
     FM021900 35007KT P6SM SKC=



000
FTUS41 KBUF 020540
TAFROC
TAF
KROC 020540Z 0206/0306 23004KT 5SM BR FEW250
     FM020800 23003KT 2SM BR BKN005
     FM021300 24005KT P6SM SCT007
     FM021600 28005KT P6SM SCT030
     FM021900 35007KT P6SM SKC=



000
FTUS41 KBUF 020540
TAFBUF
TAF
KBUF 020540Z 0206/0306 22006KT 3SM BR SCT003
     FM020700 22005KT 2SM BR SCT003
     FM020800 21004KT 1/2SM FG BKN003
     FM021300 22006KT P6SM SCT007
     FM021700 24010KT P6SM SCT040=



000
FTUS41 KBUF 020540
TAFIAG
TAF
KIAG 020540Z 0206/0306 23006KT 2SM BR SCT003
     FM020700 21003KT 1/2SM FG BKN003
     FM021300 22005KT P6SM SCT007
     FM021700 24010KT P6SM SCT040=



000
FTUS41 KBUF 020540
TAFJHW
TAF
KJHW 020540Z 0206/0306 VRB03KT 1/4SM FG BKN002
     FM021400 25006KT P6SM SCT007
     FM021700 30008KT P6SM SCT035
      AMD LTD TO CLD VIS AND WIND=



000
FTUS41 KBUF 020540
TAFART
TAF
KART 020540Z 0206/0306 VRB03KT 2SM BR SCT007
     FM020700 VRB03KT 1/2SM FG BKN003
     FM021400 23005KT P6SM BKN015
     FM021700 24010KT P6SM SCT035=



000
FTUS41 KBUF 020540
TAFROC
TAF
KROC 020540Z 0206/0306 23004KT 5SM BR FEW250
     FM020800 23003KT 2SM BR BKN005
     FM021300 24005KT P6SM SCT007
     FM021600 28005KT P6SM SCT030
     FM021900 35007KT P6SM SKC=



000
FTUS41 KBUF 020540
TAFIAG
TAF
KIAG 020540Z 0206/0306 23006KT 2SM BR SCT003
     FM020700 21003KT 1/2SM FG BKN003
     FM021300 22005KT P6SM SCT007
     FM021700 24010KT P6SM SCT040=



000
FTUS41 KBUF 020540
TAFART
TAF
KART 020540Z 0206/0306 VRB03KT 2SM BR SCT007
     FM020700 VRB03KT 1/2SM FG BKN003
     FM021400 23005KT P6SM BKN015
     FM021700 24010KT P6SM SCT035=



000
FTUS41 KBUF 020540
TAFBUF
TAF
KBUF 020540Z 0206/0306 22006KT 3SM BR SCT003
     FM020700 22005KT 2SM BR SCT003
     FM020800 21004KT 1/2SM FG BKN003
     FM021300 22006KT P6SM SCT007
     FM021700 24010KT P6SM SCT040=



000
FTUS41 KBUF 020540
TAFJHW
TAF
KJHW 020540Z 0206/0306 VRB03KT 1/4SM FG BKN002
     FM021400 25006KT P6SM SCT007
     FM021700 30008KT P6SM SCT035
      AMD LTD TO CLD VIS AND WIND=



000
FTUS41 KBUF 020419 AAB
TAFJHW
TAF AMD
KJHW 020419Z 0204/0224 VRB03KT 1/2SM FG BKN005
     FM020600 VRB03KT 1/4SM FG BKN002
     FM021400 25006KT P6SM SCT007
     FM021700 30008KT P6SM SCT035
      AMD LTD TO CLD VIS AND WIND=



000
FTUS41 KBUF 020419 AAB
TAFJHW
TAF AMD
KJHW 020419Z 0204/0224 VRB03KT 1/2SM FG BKN005
     FM020600 VRB03KT 1/4SM FG BKN002
     FM021400 25006KT P6SM SCT007
     FM021700 30008KT P6SM SCT035
      AMD LTD TO CLD VIS AND WIND=



000
FTUS41 KBUF 020246 AAA
TAFJHW
TAF AMD
KJHW 020246Z 0203/0224 25004KT 5SM BR SKC
     FM020400 VRB03KT 2SM BR SCT003
     FM020600 VRB03KT 1/4SM FG BKN002
     FM021400 25006KT P6SM SCT007
     FM021700 30008KT P6SM SCT035
      AMD LTD TO CLD VIS AND WIND=



000
FTUS41 KBUF 020246 AAC
TAFBUF
TAF AMD
KBUF 020246Z 0203/0224 21005KT 3SM BR SCT005
     FM020600 21005KT 2SM BR BKN005
     FM020800 21004KT 1/2SM FG BKN003
     FM021300 22006KT P6SM SCT007
     FM021700 24010KT P6SM SCT040=



000
FTUS41 KBUF 020246 AAC
TAFART
TAF AMD
KART 020246Z 0203/0224 VRB03KT 2SM BR SCT007
     FM020700 VRB03KT 1/2SM FG BKN003
     FM021400 23005KT P6SM BKN015
     FM021700 24010KT P6SM SCT035=



000
FTUS41 KBUF 020246 AAA
TAFROC
TAF AMD
KROC 020246Z 0203/0224 VRB05KT P6SM SKC
     FM020500 20003KT 3SM BR SCT005
     FM020800 20003KT 2SM BR BKN005
     FM021300 24005KT P6SM SCT007
     FM021600 28005KT P6SM SCT030
     FM021900 35007KT P6SM SKC=



000
FTUS41 KBUF 020246 AAB
TAFIAG
TAF AMD
KIAG 020246Z 0203/0224 21006KT 3SM BR SCT005
     FM020500 21005KT 2SM BR BKN005
     FM020700 21003KT 1/2SM FG BKN003
     FM021300 22005KT P6SM SCT007
     FM021700 24010KT P6SM SCT040=



000
FTUS41 KBUF 020246 AAA
TAFJHW
TAF AMD
KJHW 020246Z 0203/0224 25004KT 5SM BR SKC
     FM020400 VRB03KT 2SM BR SCT003
     FM020600 VRB03KT 1/4SM FG BKN002
     FM021400 25006KT P6SM SCT007
     FM021700 30008KT P6SM SCT035
      AMD LTD TO CLD VIS AND WIND=



000
FTUS41 KBUF 020246 AAC
TAFBUF
TAF AMD
KBUF 020246Z 0203/0224 21005KT 3SM BR SCT005
     FM020600 21005KT 2SM BR BKN005
     FM020800 21004KT 1/2SM FG BKN003
     FM021300 22006KT P6SM SCT007
     FM021700 24010KT P6SM SCT040=



000
FTUS41 KBUF 020246 AAC
TAFART
TAF AMD
KART 020246Z 0203/0224 VRB03KT 2SM BR SCT007
     FM020700 VRB03KT 1/2SM FG BKN003
     FM021400 23005KT P6SM BKN015
     FM021700 24010KT P6SM SCT035=



000
FTUS41 KBUF 020246 AAB
TAFIAG
TAF AMD
KIAG 020246Z 0203/0224 21006KT 3SM BR SCT005
     FM020500 21005KT 2SM BR BKN005
     FM020700 21003KT 1/2SM FG BKN003
     FM021300 22005KT P6SM SCT007
     FM021700 24010KT P6SM SCT040=



000
FTUS41 KBUF 020246 AAA
TAFROC
TAF AMD
KROC 020246Z 0203/0224 VRB05KT P6SM SKC
     FM020500 20003KT 3SM BR SCT005
     FM020800 20003KT 2SM BR BKN005
     FM021300 24005KT P6SM SCT007
     FM021600 28005KT P6SM SCT030
     FM021900 35007KT P6SM SKC=



000
FTUS41 KBUF 020146 AAB
TAFART
TAF AMD
KART 020146Z 0202/0224 VRB03KT 2SM BR SCT007
     FM020700 VRB03KT 1/2SM FG BKN003
     FM021400 23005KT P6SM BKN015
     FM021600 24010KT P6SM SCT035=



000
FTUS41 KBUF 020058 AAA
TAFIAG
TAF AMD
KIAG 020058Z 0201/0224 21006KT P6SM SKC
     FM020200 21005KT 5SM BR SCT007
     FM020600 21003KT 1/2SM FG BKN003
     FM021300 22005KT P6SM SCT007
     FM021700 24010KT P6SM SCT040=



000
FTUS41 KBUF 020057 AAA
TAFART
TAF AMD
KART 020057Z 0201/0224 21005KT 3SM BR SKC
     FM020400 VRB03KT 2SM BR SCT007
     FM020700 VRB03KT 1/2SM FG BKN003
     FM021400 23005KT P6SM BKN015
     FM021600 24010KT P6SM SCT035=



000
FTUS41 KBUF 020057 AAB
TAFBUF
TAF AMD
KBUF 020057Z 0201/0224 22006KT 5SM BR SKC
     FM020300 21005KT 3SM BR SCT007
     FM020700 21005KT 2SM BR BKN007
     FM021300 22006KT P6SM SCT007
     FM021700 24010KT P6SM SCT040=



000
FTUS41 KBUF 012337
TAFJHW
TAF
KJHW 012337Z 0200/0224 VRB03KT P6SM SKC
     FM020400 VRB03KT 2SM BR SCT003
     FM020700 VRB03KT 1/4SM FG BKN002
     FM021400 25006KT P6SM SCT007
     FM021700 30008KT P6SM SCT035
      AMD LTD TO CLD VIS AND WIND=



000
FTUS41 KBUF 012337
TAFART
TAF
KART 012337Z 0200/0224 21005KT P6SM SKC
     FM020500 VRB03KT 2SM BR SCT007
     FM020800 VRB03KT 1SM BR BKN005
     FM021400 23005KT P6SM BKN015
     FM021600 24010KT P6SM SCT035=



000
FTUS41 KBUF 012337
TAFBUF
TAF
KBUF 012337Z 0200/0224 22008KT P6SM SKC
     FM020400 21005KT 5SM BR SCT007
     FM020800 21005KT 2SM BR BKN007
     FM021300 22006KT P6SM SCT007
     FM021700 24010KT P6SM SCT040=



000
FTUS41 KBUF 012337
TAFROC
TAF
KROC 012337Z 0200/0224 VRB05KT P6SM SKC
     FM020600 20003KT 3SM BR SCT007
     FM020900 20003KT 2SM BR BKN007
     FM021300 24005KT P6SM SCT007
     FM021600 28005KT P6SM SCT030
     FM021900 35007KT P6SM SKC=



000
FTUS41 KBUF 012337
TAFIAG
TAF
KIAG 012337Z 0200/0224 22008KT P6SM SKC
     FM020400 22005KT 5SM BR SCT007
     FM020700 21003KT 1/2SM FG BKN003
     FM021300 22005KT P6SM SCT007
     FM021700 24010KT P6SM SCT040=



000
FTUS41 KBUF 012109 CCA
TAFART
TAF COR
KART 012109Z 0121/0218 23008KT P6SM SCT015
     FM012300 21005KT P6SM SKC
     FM020500 18004KT 5SM BR SCT007
     FM020800 VRB03KT 2SM BR BKN007
     FM021300 22005KT P6SM SCT035=



000
FTUS41 KBUF 012109 CCA
TAFART
TAF COR
KART 012109Z 0121/0218 23008KT P6SM SCT015
     FM012300 21005KT P6SM SKC
     FM020500 18004KT 5SM BR SCT007
     FM020800 VRB03KT 2SM BR BKN007
     FM021300 22005KT P6SM SCT035=



000
FTUS41 KBUF 012108 AAA
TAFIAG
TAF AMD
KIAG 012108Z 0121/0218 23010KT P6SM SKC
     FM020200 22006KT P6SM SCT007
     FM020900 21006KT 1SM BR BKN007
     FM021400 21005KT P6SM BKN250=



000
FTUS41 KBUF 012108 AAA
TAFROC
TAF AMD
KROC 012108Z 0121/0218 24007KT P6SM SKC
     FM021000 23006KT 2SM BR BKN007
     FM021300 28005KT P6SM SCT250
     FM021500 29005KT P6SM SCT030=



000
FTUS41 KBUF 012108 AAA
TAFART
TAF AMD
KART 012108Z 0121/0218 23008KT 6SM BR SCT015
     FM012300 21005KT P6SM SKC
     FM020500 18004KT 5SM BR SCT007
     FM020800 VRB03KT 2SM BR BKN007
     FM021300 22005KT P6SM SCT035=



000
FTUS41 KBUF 012108 AAA
TAFBUF
TAF AMD
KBUF 012108Z 0121/0218 24010KT P6SM SKC
     FM020200 22006KT P6SM SCT007
     FM020900 21006KT 3SM BR BKN007
     FM021300 21005KT P6SM BKN250
     FM021600 24009KT P6SM SCT250=



000
FTUS41 KBUF 012108 AAA
TAFJHW
TAF AMD
KJHW 012108Z 0121/0218 27005KT P6SM FEW040
     FM020300 20004KT P6SM SKC
     FM020500 20004KT 1SM BR BKN005
     FM021000 19004KT 1/4SM FG BKN002
     FM021400 24006KT P6SM SCT020
      AMD LTD TO CLD VIS AND WIND=



000
FTUS41 KBUF 012108 AAA
TAFROC
TAF AMD
KROC 012108Z 0121/0218 24007KT P6SM SKC
     FM021000 23006KT 2SM BR BKN007
     FM021300 28005KT P6SM SCT250
     FM021500 29005KT P6SM SCT030=



000
FTUS41 KBUF 012108 AAA
TAFIAG
TAF AMD
KIAG 012108Z 0121/0218 23010KT P6SM SKC
     FM020200 22006KT P6SM SCT007
     FM020900 21006KT 1SM BR BKN007
     FM021400 21005KT P6SM BKN250=



000
FTUS41 KBUF 012108 AAA
TAFBUF
TAF AMD
KBUF 012108Z 0121/0218 24010KT P6SM SKC
     FM020200 22006KT P6SM SCT007
     FM020900 21006KT 3SM BR BKN007
     FM021300 21005KT P6SM BKN250
     FM021600 24009KT P6SM SCT250=



000
FTUS41 KBUF 012108 AAA
TAFART
TAF AMD
KART 012108Z 0121/0218 23008KT 6SM BR SCT015
     FM012300 21005KT P6SM SKC
     FM020500 18004KT 5SM BR SCT007
     FM020800 VRB03KT 2SM BR BKN007
     FM021300 22005KT P6SM SCT035=



000
FTUS41 KBUF 012108 AAA
TAFJHW
TAF AMD
KJHW 012108Z 0121/0218 27005KT P6SM FEW040
     FM020300 20004KT P6SM SKC
     FM020500 20004KT 1SM BR BKN005
     FM021000 19004KT 1/4SM FG BKN002
     FM021400 24006KT P6SM SCT020
      AMD LTD TO CLD VIS AND WIND=



000
FTUS41 KBUF 011721
TAFIAG
TAF
KIAG 011721Z 0118/0218 23008KT P6SM FEW250
     FM020900 21006KT 1SM BR BKN007
     FM021400 21005KT P6SM BKN250=



000
FTUS41 KBUF 011721
TAFBUF
TAF
KBUF 011721Z 0118/0218 24008KT P6SM FEW250
     FM020900 21006KT 3SM BR BKN007
     FM021300 21005KT P6SM BKN250
     FM021600 24009KT P6SM SCT250=



000
FTUS41 KBUF 011721
TAFROC
TAF
KROC 011721Z 0118/0218 24006KT P6SM FEW250
     FM021000 23006KT 2SM BR BKN007
     FM021300 28005KT P6SM SCT250
     FM021500 29005KT P6SM SCT030=



000
FTUS41 KBUF 011721
TAFJHW
TAF
KJHW 011721Z 0118/0218 27005KT P6SM FEW030
     FM020300 20004KT P6SM FEW250
     FM020500 20004KT 1SM BR BKN005
     FM021000 19004KT 1/4SM FG BKN002
     FM021400 24006KT P6SM SCT020
      AMD LTD TO CLD VIS AND WIND=



000
FTUS41 KBUF 011721
TAFIAG
TAF
KIAG 011721Z 0118/0218 23008KT P6SM FEW250
     FM020900 21006KT 1SM BR BKN007
     FM021400 21005KT P6SM BKN250=



000
FTUS41 KBUF 011721
TAFART
TAF
KART 011721Z 0118/0218 24008KT P6SM FEW250
     FM020500 18004KT 5SM BR SCT110
     FM020800 VRB03KT 2SM BR BKN007
     FM021300 22005KT P6SM SCT035=



000
FTUS41 KBUF 011721
TAFBUF
TAF
KBUF 011721Z 0118/0218 24008KT P6SM FEW250
     FM020900 21006KT 3SM BR BKN007
     FM021300 21005KT P6SM BKN250
     FM021600 24009KT P6SM SCT250=



000
FTUS41 KBUF 011721
TAFROC
TAF
KROC 011721Z 0118/0218 24006KT P6SM FEW250
     FM021000 23006KT 2SM BR BKN007
     FM021300 28005KT P6SM SCT250
     FM021500 29005KT P6SM SCT030=



000
FTUS41 KBUF 011721
TAFART
TAF
KART 011721Z 0118/0218 24008KT P6SM FEW250
     FM020500 18004KT 5SM BR SCT110
     FM020800 VRB03KT 2SM BR BKN007
     FM021300 22005KT P6SM SCT035=



000
FTUS41 KBUF 011721
TAFJHW
TAF
KJHW 011721Z 0118/0218 27005KT P6SM FEW030
     FM020300 20004KT P6SM FEW250
     FM020500 20004KT 1SM BR BKN005
     FM021000 19004KT 1/4SM FG BKN002
     FM021400 24006KT P6SM SCT020
      AMD LTD TO CLD VIS AND WIND=



000
FTUS41 KBUF 011446 AAB
TAFART
TAF AMD
KART 011446Z 0115/0212 VRB03KT 5SM BR BKN015
     FM011530 19004KT P6SM FEW015
     FM011700 23008KT P6SM SKC
     FM020000 19004KT P6SM SKC
     FM020900 18005KT 2SM BR BKN007=



000
FTUS41 KBUF 011446 AAA
TAFROC
TAF AMD
KROC 011446Z 0115/0212 24004KT P6SM OVC011
     FM011530 VRB03KT P6SM SCT015
     FM011700 25004KT P6SM SKC
     FM012000 33004KT P6SM SKC
     FM020300 20004KT P6SM FEW007
     FM021000 23005KT 2SM BR BKN007=



000
FTUS41 KBUF 011446 AAA
TAFJHW
TAF AMD
KJHW 011446Z 0115/0212 VRB03KT P6SM SCT010
      TEMPO 0115/0116 2SM BR BKN002
     FM011700 27004KT P6SM SKC
     FM020400 00000KT 4SM BR BKN007
     FM020600 00000KT 1/4SM FG OVC001
      AMD LTD TO CLD VIS AND WIND=



000
FTUS41 KBUF 011446 AAB
TAFBUF
TAF AMD
KBUF 011446Z 0115/0212 23009KT P6SM SCT050
     FM011700 23007KT P6SM SKC
     FM020800 21005KT 2SM BR BKN007=



000
FTUS41 KBUF 011446 AAB
TAFIAG
TAF AMD
KIAG 011446Z 0115/0212 VRB03KT P6SM SCT007
      TEMPO 0115/0116 3SM BR
     FM011900 22008KT P6SM SKC
     FM021000 22004KT 2SM BR BKN007=



000
FTUS41 KBUF 011400 AAA
TAFART
TAF AMD
KART 011400Z 0114/0212 VRB03KT 5SM BR BKN015
     FM011430 19004KT P6SM FEW008
     FM011700 23008KT P6SM SKC
     FM020000 19004KT P6SM SKC
     FM020900 18005KT 2SM BR BKN007=



000
FTUS41 KBUF 011359 AAA
TAFIAG
TAF AMD
KIAG 011359Z 0114/0212 VRB03KT 2SM BR BKN002
     FM011500 21004KT P6SM SCT007
     FM011900 22008KT P6SM SKC
     FM021000 22004KT 2SM BR BKN007=



000
FTUS41 KBUF 011228 AAA
TAFBUF
TAF AMD
KBUF 011228Z 0112/0212 VRB03KT 3SM BR SCT011
     FM011330 23006KT P6SM SCT050
     FM011700 23007KT P6SM SKC
     FM020800 21005KT 2SM BR BKN007=



000
FTUS41 KBUF 011228 AAA
TAFBUF
TAF AMD
KBUF 011228Z 0112/0212 VRB03KT 3SM BR SCT011
     FM011330 23006KT P6SM SCT050
     FM011700 23007KT P6SM SKC
     FM020800 21005KT 2SM BR BKN007=



000
FTUS41 KBUF 011137
TAFBUF
TAF
KBUF 011137Z 0112/0212 00000KT 1 1/2SM BR OVC004
     FM011500 23006KT P6SM SCT010
     FM011700 23007KT P6SM SKC
     FM020800 21005KT 2SM BR BKN007=



000
FTUS41 KBUF 011137
TAFROC
TAF
KROC 011137Z 0112/0212 24004KT 2SM BR OVC008
     FM011500 VRB03KT P6SM SCT008
     FM011700 25004KT P6SM SKC
     FM012000 33004KT P6SM SKC
     FM020300 20004KT P6SM FEW007
     FM021000 23005KT 2SM BR BKN007=



000
FTUS41 KBUF 011137
TAFART
TAF
KART 011137Z 0112/0212 VRB03KT 1SM BR OVC008
     FM011400 19004KT 6SM BR FEW008
     FM011700 23008KT P6SM SKC
     FM020000 19004KT P6SM SKC
     FM020900 18005KT 2SM BR BKN007=



000
FTUS41 KBUF 011137
TAFJHW
TAF
KJHW 011137Z 0112/0212 VRB03KT 1/4SM FG OVC001
     FM011500 00000KT P6SM SCT010
     FM011700 27004KT P6SM SKC
     FM020400 00000KT 4SM BR BKN007
     FM020600 00000KT 1/4SM FG OVC001
      AMD LTD TO CLD VIS AND WIND=



000
FTUS41 KBUF 011137
TAFIAG
TAF
KIAG 011137Z 0112/0212 00000KT 1/2SM FG VV002
     FM011400 VRB03KT 4SM BR BKN007
     FM011500 21004KT P6SM SCT007
     FM011900 22008KT P6SM SKC
     FM021000 22004KT 2SM BR BKN007=



000
FTUS41 KBUF 011137
TAFROC
TAF
KROC 011137Z 0112/0212 24004KT 2SM BR OVC008
     FM011500 VRB03KT P6SM SCT008
     FM011700 25004KT P6SM SKC
     FM012000 33004KT P6SM SKC
     FM020300 20004KT P6SM FEW007
     FM021000 23005KT 2SM BR BKN007=



000
FTUS41 KBUF 011137
TAFBUF
TAF
KBUF 011137Z 0112/0212 00000KT 1 1/2SM BR OVC004
     FM011500 23006KT P6SM SCT010
     FM011700 23007KT P6SM SKC
     FM020800 21005KT 2SM BR BKN007=



000
FTUS41 KBUF 011137
TAFJHW
TAF
KJHW 011137Z 0112/0212 VRB03KT 1/4SM FG OVC001
     FM011500 00000KT P6SM SCT010
     FM011700 27004KT P6SM SKC
     FM020400 00000KT 4SM BR BKN007
     FM020600 00000KT 1/4SM FG OVC001
      AMD LTD TO CLD VIS AND WIND=



000
FTUS41 KBUF 011137
TAFIAG
TAF
KIAG 011137Z 0112/0212 00000KT 1/2SM FG VV002
     FM011400 VRB03KT 4SM BR BKN007
     FM011500 21004KT P6SM SCT007
     FM011900 22008KT P6SM SKC
     FM021000 22004KT 2SM BR BKN007=



000
FTUS41 KBUF 011137
TAFART
TAF
KART 011137Z 0112/0212 VRB03KT 1SM BR OVC008
     FM011400 19004KT 6SM BR FEW008
     FM011700 23008KT P6SM SKC
     FM020000 19004KT P6SM SKC
     FM020900 18005KT 2SM BR BKN007=



    US Dept of Commerce
    National Oceanic and Atmospheric Administration
    National Weather Service
    1325 East West Highway
    Silver Spring, MD 20910
    Page Author: NWS Internet Services Team
Disclaimer
Information Quality
Credits
Glossary
Privacy Policy
Freedom of Information Act (FOIA)
About Us
Career Opportunities